sensor_id;sensor_type;location;lat;lon;timestamp;P1;durP1;ratioP1;P2;durP2;ratioP2
79755;SDS011;69239;50.678;12.280;2024-01-30T00:00:32;7.90;;;4.07;;
79755;SDS011;69239;50.678;12.280;2024-01-30T00:02:57;6.53;;;3.33;;
79755;SDS011;69239;50.678;12.280;2024-01-30T00:05:22;5.53;;;2.97;;
79755;SDS011;69239;50.678;12.280;2024-01-30T00:07:48;8.40;;;4.10;;
79755;SDS011;69239;50.678;12.280;2024-01-30T00:10:13;7.73;;;3.70;;
79755;SDS011;69239;50.678;12.280;2024-01-30T00:12:39;6.88;;;3.83;;
79755;SDS011;69239;50.678;12.280;2024-01-30T00:15:04;7.30;;;3.33;;
79755;SDS011;69239;50.678;12.280;2024-01-30T00:17:30;7.88;;;3.22;;
79755;SDS011;69239;50.678;12.280;2024-01-30T00:19:55;7.68;;;3.50;;
79755;SDS011;69239;50.678;12.280;2024-01-30T00:22:21;7.30;;;3.20;;
79755;SDS011;69239;50.678;12.280;2024-01-30T00:24:46;6.40;;;3.30;;
79755;SDS011;69239;50.678;12.280;2024-01-30T00:27:11;7.53;;;3.30;;
79755;SDS011;69239;50.678;12.280;2024-01-30T00:29:37;7.03;;;3.37;;
79755;SDS011;69239;50.678;12.280;2024-01-30T00:32:02;6.37;;;3.47;;
79755;SDS011;69239;50.678;12.280;2024-01-30T00:34:27;6.90;;;3.17;;
79755;SDS011;69239;50.678;12.280;2024-01-30T00:36:53;10.90;;;3.88;;
79755;SDS011;69239;50.678;12.280;2024-01-30T00:39:18;8.65;;;4.03;;
79755;SDS011;69239;50.678;12.280;2024-01-30T00:41:44;8.07;;;4.32;;
79755;SDS011;69239;50.678;12.280;2024-01-30T00:44:10;7.65;;;3.53;;
79755;SDS011;69239;50.678;12.280;2024-01-30T00:46:35;6.03;;;3.50;;
79755;SDS011;69239;50.678;12.280;2024-01-30T00:49:01;7.30;;;3.65;;
79755;SDS011;69239;50.678;12.280;2024-01-30T00:51:26;8.35;;;4.15;;
79755;SDS011;69239;50.678;12.280;2024-01-30T00:53:53;7.25;;;3.35;;
79755;SDS011;69239;50.678;12.280;2024-01-30T00:56:19;6.90;;;3.43;;
79755;SDS011;69239;50.678;12.280;2024-01-30T00:58:44;10.02;;;4.15;;
79755;SDS011;69239;50.678;12.280;2024-01-30T01:01:09;7.43;;;3.67;;
79755;SDS011;69239;50.678;12.280;2024-01-30T01:03:35;6.88;;;3.65;;
79755;SDS011;69239;50.678;12.280;2024-01-30T01:06:00;5.20;;;3.03;;
79755;SDS011;69239;50.678;12.280;2024-01-30T01:08:25;6.83;;;3.40;;
79755;SDS011;69239;50.678;12.280;2024-01-30T01:10:51;9.18;;;3.65;;
79755;SDS011;69239;50.678;12.280;2024-01-30T01:13:17;9.73;;;3.65;;
79755;SDS011;69239;50.678;12.280;2024-01-30T01:15:42;6.23;;;3.77;;
79755;SDS011;69239;50.678;12.280;2024-01-30T01:18:07;6.22;;;3.38;;
79755;SDS011;69239;50.678;12.280;2024-01-30T01:20:33;7.07;;;3.80;;
79755;SDS011;69239;50.678;12.280;2024-01-30T01:22:58;6.73;;;3.30;;
79755;SDS011;69239;50.678;12.280;2024-01-30T01:25:23;7.90;;;3.58;;
79755;SDS011;69239;50.678;12.280;2024-01-30T01:27:49;6.20;;;3.08;;
79755;SDS011;69239;50.678;12.280;2024-01-30T01:30:16;8.00;;;3.60;;
79755;SDS011;69239;50.678;12.280;2024-01-30T01:32:47;5.82;;;3.25;;
79755;SDS011;69239;50.678;12.280;2024-01-30T01:35:20;5.95;;;3.10;;
79755;SDS011;69239;50.678;12.280;2024-01-30T01:37:47;6.30;;;3.17;;
79755;SDS011;69239;50.678;12.280;2024-01-30T01:40:19;5.32;;;2.60;;
79755;SDS011;69239;50.678;12.280;2024-01-30T01:42:45;5.50;;;3.17;;
79755;SDS011;69239;50.678;12.280;2024-01-30T01:45:10;7.30;;;3.37;;
79755;SDS011;69239;50.678;12.280;2024-01-30T01:47:36;6.67;;;3.17;;
79755;SDS011;69239;50.678;12.280;2024-01-30T01:50:01;5.28;;;2.75;;
79755;SDS011;69239;50.678;12.280;2024-01-30T01:52:27;5.57;;;3.03;;
79755;SDS011;69239;50.678;12.280;2024-01-30T01:54:53;4.40;;;2.67;;
79755;SDS011;69239;50.678;12.280;2024-01-30T01:57:19;6.15;;;3.28;;
79755;SDS011;69239;50.678;12.280;2024-01-30T01:59:44;4.43;;;2.63;;
79755;SDS011;69239;50.678;12.280;2024-01-30T02:02:10;5.70;;;2.72;;
79755;SDS011;69239;50.678;12.280;2024-01-30T02:04:36;6.75;;;3.25;;
79755;SDS011;69239;50.678;12.280;2024-01-30T02:07:01;4.63;;;2.47;;
79755;SDS011;69239;50.678;12.280;2024-01-30T02:09:27;7.15;;;3.28;;
79755;SDS011;69239;50.678;12.280;2024-01-30T02:11:52;6.17;;;3.30;;
79755;SDS011;69239;50.678;12.280;2024-01-30T02:14:17;6.28;;;3.10;;
79755;SDS011;69239;50.678;12.280;2024-01-30T02:16:43;5.40;;;3.00;;
79755;SDS011;69239;50.678;12.280;2024-01-30T02:19:08;7.80;;;3.10;;
79755;SDS011;69239;50.678;12.280;2024-01-30T02:21:33;6.90;;;2.85;;
79755;SDS011;69239;50.678;12.280;2024-01-30T02:24:00;5.72;;;2.55;;
79755;SDS011;69239;50.678;12.280;2024-01-30T02:26:26;5.85;;;2.88;;
79755;SDS011;69239;50.678;12.280;2024-01-30T02:28:52;4.63;;;2.53;;
79755;SDS011;69239;50.678;12.280;2024-01-30T02:31:17;5.57;;;2.60;;
79755;SDS011;69239;50.678;12.280;2024-01-30T02:33:42;4.90;;;2.38;;
79755;SDS011;69239;50.678;12.280;2024-01-30T02:36:08;7.60;;;3.10;;
79755;SDS011;69239;50.678;12.280;2024-01-30T02:38:33;5.60;;;2.70;;
79755;SDS011;69239;50.678;12.280;2024-01-30T02:40:58;4.97;;;2.80;;
79755;SDS011;69239;50.678;12.280;2024-01-30T02:43:24;3.90;;;2.50;;
79755;SDS011;69239;50.678;12.280;2024-01-30T02:45:49;4.05;;;2.78;;
79755;SDS011;69239;50.678;12.280;2024-01-30T02:48:14;5.60;;;2.83;;
79755;SDS011;69239;50.678;12.280;2024-01-30T02:50:40;6.22;;;2.92;;
79755;SDS011;69239;50.678;12.280;2024-01-30T02:53:05;3.97;;;2.72;;
79755;SDS011;69239;50.678;12.280;2024-01-30T02:55:30;5.17;;;2.83;;
79755;SDS011;69239;50.678;12.280;2024-01-30T02:57:56;5.60;;;2.90;;
79755;SDS011;69239;50.678;12.280;2024-01-30T03:00:21;6.17;;;3.27;;
79755;SDS011;69239;50.678;12.280;2024-01-30T03:02:46;5.80;;;2.90;;
79755;SDS011;69239;50.678;12.280;2024-01-30T03:05:12;6.35;;;3.10;;
79755;SDS011;69239;50.678;12.280;2024-01-30T03:07:37;5.03;;;2.60;;
79755;SDS011;69239;50.678;12.280;2024-01-30T03:10:06;7.03;;;3.72;;
79755;SDS011;69239;50.678;12.280;2024-01-30T03:12:31;5.30;;;2.92;;
79755;SDS011;69239;50.678;12.280;2024-01-30T03:14:57;9.52;;;3.72;;
79755;SDS011;69239;50.678;12.280;2024-01-30T03:17:22;6.13;;;2.83;;
79755;SDS011;69239;50.678;12.280;2024-01-30T03:19:49;7.95;;;3.03;;
79755;SDS011;69239;50.678;12.280;2024-01-30T03:22:14;6.18;;;2.97;;
79755;SDS011;69239;50.678;12.280;2024-01-30T03:24:40;7.33;;;2.97;;
79755;SDS011;69239;50.678;12.280;2024-01-30T03:27:05;4.50;;;2.80;;
79755;SDS011;69239;50.678;12.280;2024-01-30T03:29:30;5.03;;;2.50;;
79755;SDS011;69239;50.678;12.280;2024-01-30T03:31:56;5.78;;;3.10;;
79755;SDS011;69239;50.678;12.280;2024-01-30T03:34:21;5.63;;;3.00;;
79755;SDS011;69239;50.678;12.280;2024-01-30T03:36:46;7.45;;;2.90;;
79755;SDS011;69239;50.678;12.280;2024-01-30T03:39:12;4.97;;;2.60;;
79755;SDS011;69239;50.678;12.280;2024-01-30T03:41:37;5.63;;;2.92;;
79755;SDS011;69239;50.678;12.280;2024-01-30T03:44:02;5.73;;;3.03;;
79755;SDS011;69239;50.678;12.280;2024-01-30T03:46:28;5.43;;;3.15;;
79755;SDS011;69239;50.678;12.280;2024-01-30T03:48:53;5.40;;;2.83;;
79755;SDS011;69239;50.678;12.280;2024-01-30T03:51:19;5.43;;;2.63;;
79755;SDS011;69239;50.678;12.280;2024-01-30T03:53:44;4.82;;;2.80;;
79755;SDS011;69239;50.678;12.280;2024-01-30T03:56:11;5.80;;;2.67;;
79755;SDS011;69239;50.678;12.280;2024-01-30T03:58:38;6.25;;;2.95;;
79755;SDS011;69239;50.678;12.280;2024-01-30T04:01:04;5.85;;;3.25;;
79755;SDS011;69239;50.678;12.280;2024-01-30T04:03:29;8.52;;;2.80;;
79755;SDS011;69239;50.678;12.280;2024-01-30T04:05:54;6.37;;;3.17;;
79755;SDS011;69239;50.678;12.280;2024-01-30T04:08:20;6.38;;;2.95;;
79755;SDS011;69239;50.678;12.280;2024-01-30T04:10:46;5.40;;;2.80;;
79755;SDS011;69239;50.678;12.280;2024-01-30T04:13:12;7.43;;;3.38;;
79755;SDS011;69239;50.678;12.280;2024-01-30T04:15:37;6.35;;;2.85;;
79755;SDS011;69239;50.678;12.280;2024-01-30T04:18:03;6.03;;;2.47;;
79755;SDS011;69239;50.678;12.280;2024-01-30T04:20:28;7.22;;;3.10;;
79755;SDS011;69239;50.678;12.280;2024-01-30T04:22:54;3.47;;;2.63;;
79755;SDS011;69239;50.678;12.280;2024-01-30T04:25:20;4.15;;;2.60;;
79755;SDS011;69239;50.678;12.280;2024-01-30T04:27:45;8.80;;;2.78;;
79755;SDS011;69239;50.678;12.280;2024-01-30T04:30:11;6.32;;;2.80;;
79755;SDS011;69239;50.678;12.280;2024-01-30T04:32:36;5.55;;;2.75;;
79755;SDS011;69239;50.678;12.280;2024-01-30T04:35:02;4.45;;;2.83;;
79755;SDS011;69239;50.678;12.280;2024-01-30T04:37:28;6.28;;;2.92;;
79755;SDS011;69239;50.678;12.280;2024-01-30T04:39:53;6.35;;;2.97;;
79755;SDS011;69239;50.678;12.280;2024-01-30T04:42:19;5.63;;;3.38;;
79755;SDS011;69239;50.678;12.280;2024-01-30T04:44:44;4.38;;;2.92;;
79755;SDS011;69239;50.678;12.280;2024-01-30T04:47:10;5.82;;;3.17;;
79755;SDS011;69239;50.678;12.280;2024-01-30T04:49:37;7.88;;;3.05;;
79755;SDS011;69239;50.678;12.280;2024-01-30T04:52:04;4.90;;;2.90;;
79755;SDS011;69239;50.678;12.280;2024-01-30T04:54:30;5.38;;;3.10;;
79755;SDS011;69239;50.678;12.280;2024-01-30T04:56:55;5.47;;;3.00;;
79755;SDS011;69239;50.678;12.280;2024-01-30T04:59:21;7.93;;;3.00;;
79755;SDS011;69239;50.678;12.280;2024-01-30T05:01:46;5.45;;;2.88;;
79755;SDS011;69239;50.678;12.280;2024-01-30T05:04:11;7.40;;;3.20;;
79755;SDS011;69239;50.678;12.280;2024-01-30T05:06:37;6.35;;;3.33;;
79755;SDS011;69239;50.678;12.280;2024-01-30T05:09:02;5.47;;;3.08;;
79755;SDS011;69239;50.678;12.280;2024-01-30T05:11:29;4.70;;;3.03;;
79755;SDS011;69239;50.678;12.280;2024-01-30T05:13:55;7.18;;;3.35;;
79755;SDS011;69239;50.678;12.280;2024-01-30T05:16:20;6.57;;;3.40;;
79755;SDS011;69239;50.678;12.280;2024-01-30T05:18:46;6.68;;;3.40;;
79755;SDS011;69239;50.678;12.280;2024-01-30T05:21:11;6.90;;;3.57;;
79755;SDS011;69239;50.678;12.280;2024-01-30T05:23:36;6.00;;;3.40;;
79755;SDS011;69239;50.678;12.280;2024-01-30T05:26:02;5.63;;;2.97;;
79755;SDS011;69239;50.678;12.280;2024-01-30T05:28:28;6.65;;;3.70;;
79755;SDS011;69239;50.678;12.280;2024-01-30T05:30:55;6.88;;;3.63;;
79755;SDS011;69239;50.678;12.280;2024-01-30T05:33:20;7.30;;;3.70;;
79755;SDS011;69239;50.678;12.280;2024-01-30T05:35:46;8.57;;;4.00;;
79755;SDS011;69239;50.678;12.280;2024-01-30T05:38:11;10.65;;;4.50;;
79755;SDS011;69239;50.678;12.280;2024-01-30T05:40:37;12.20;;;4.70;;
79755;SDS011;69239;50.678;12.280;2024-01-30T05:43:03;12.77;;;6.28;;
79755;SDS011;69239;50.678;12.280;2024-01-30T05:45:28;13.50;;;6.30;;
79755;SDS011;69239;50.678;12.280;2024-01-30T05:47:53;15.70;;;6.45;;
79755;SDS011;69239;50.678;12.280;2024-01-30T05:50:19;8.95;;;5.07;;
79755;SDS011;69239;50.678;12.280;2024-01-30T05:52:45;12.55;;;4.97;;
79755;SDS011;69239;50.678;12.280;2024-01-30T05:55:11;9.02;;;5.15;;
79755;SDS011;69239;50.678;12.280;2024-01-30T05:57:37;11.38;;;4.50;;
79755;SDS011;69239;50.678;12.280;2024-01-30T06:00:03;12.18;;;4.90;;
79755;SDS011;69239;50.678;12.280;2024-01-30T06:02:30;8.90;;;4.30;;
79755;SDS011;69239;50.678;12.280;2024-01-30T06:04:56;9.00;;;4.25;;
79755;SDS011;69239;50.678;12.280;2024-01-30T06:07:21;9.55;;;4.90;;
79755;SDS011;69239;50.678;12.280;2024-01-30T06:09:47;10.38;;;4.32;;
79755;SDS011;69239;50.678;12.280;2024-01-30T06:12:13;9.07;;;4.20;;
79755;SDS011;69239;50.678;12.280;2024-01-30T06:14:38;10.13;;;4.63;;
79755;SDS011;69239;50.678;12.280;2024-01-30T06:17:04;9.45;;;4.22;;
79755;SDS011;69239;50.678;12.280;2024-01-30T06:19:30;8.52;;;4.30;;
79755;SDS011;69239;50.678;12.280;2024-01-30T06:21:55;8.75;;;4.53;;
79755;SDS011;69239;50.678;12.280;2024-01-30T06:24:23;7.85;;;4.35;;
79755;SDS011;69239;50.678;12.280;2024-01-30T06:26:53;8.20;;;4.13;;
79755;SDS011;69239;50.678;12.280;2024-01-30T06:29:18;11.20;;;4.28;;
79755;SDS011;69239;50.678;12.280;2024-01-30T06:31:44;6.47;;;4.30;;
79755;SDS011;69239;50.678;12.280;2024-01-30T06:34:09;9.13;;;5.07;;
79755;SDS011;69239;50.678;12.280;2024-01-30T06:36:36;11.50;;;5.05;;
79755;SDS011;69239;50.678;12.280;2024-01-30T06:39:02;13.52;;;5.18;;
79755;SDS011;69239;50.678;12.280;2024-01-30T06:41:28;9.57;;;4.93;;
79755;SDS011;69239;50.678;12.280;2024-01-30T06:43:53;11.02;;;4.68;;
79755;SDS011;69239;50.678;12.280;2024-01-30T06:46:19;11.05;;;4.90;;
79755;SDS011;69239;50.678;12.280;2024-01-30T06:48:44;6.80;;;4.70;;
79755;SDS011;69239;50.678;12.280;2024-01-30T06:51:10;9.57;;;4.90;;
79755;SDS011;69239;50.678;12.280;2024-01-30T06:53:37;12.50;;;5.47;;
79755;SDS011;69239;50.678;12.280;2024-01-30T06:56:02;7.88;;;4.07;;
79755;SDS011;69239;50.678;12.280;2024-01-30T06:58:28;9.18;;;4.32;;
79755;SDS011;69239;50.678;12.280;2024-01-30T07:00:54;8.77;;;4.13;;
79755;SDS011;69239;50.678;12.280;2024-01-30T07:03:19;10.15;;;4.03;;
79755;SDS011;69239;50.678;12.280;2024-01-30T07:05:44;6.65;;;3.55;;
79755;SDS011;69239;50.678;12.280;2024-01-30T07:08:10;9.30;;;4.10;;
79755;SDS011;69239;50.678;12.280;2024-01-30T07:10:35;7.82;;;3.42;;
79755;SDS011;69239;50.678;12.280;2024-01-30T07:13:01;11.30;;;4.68;;
79755;SDS011;69239;50.678;12.280;2024-01-30T07:15:26;9.57;;;4.60;;
79755;SDS011;69239;50.678;12.280;2024-01-30T07:17:51;7.03;;;4.40;;
79755;SDS011;69239;50.678;12.280;2024-01-30T07:20:17;8.00;;;4.40;;
79755;SDS011;69239;50.678;12.280;2024-01-30T07:22:45;6.50;;;4.13;;
79755;SDS011;69239;50.678;12.280;2024-01-30T07:25:11;7.60;;;4.03;;
79755;SDS011;69239;50.678;12.280;2024-01-30T07:27:36;6.47;;;4.32;;
79755;SDS011;69239;50.678;12.280;2024-01-30T07:30:01;7.95;;;3.85;;
79755;SDS011;69239;50.678;12.280;2024-01-30T07:32:27;9.00;;;4.20;;
79755;SDS011;69239;50.678;12.280;2024-01-30T07:34:52;8.10;;;4.57;;
79755;SDS011;69239;50.678;12.280;2024-01-30T07:37:18;8.20;;;4.60;;
79755;SDS011;69239;50.678;12.280;2024-01-30T07:39:44;8.85;;;4.63;;
79755;SDS011;69239;50.678;12.280;2024-01-30T07:42:10;6.88;;;4.18;;
79755;SDS011;69239;50.678;12.280;2024-01-30T07:44:35;9.75;;;4.63;;
79755;SDS011;69239;50.678;12.280;2024-01-30T07:47:01;9.68;;;4.90;;
79755;SDS011;69239;50.678;12.280;2024-01-30T07:49:27;7.57;;;4.60;;
79755;SDS011;69239;50.678;12.280;2024-01-30T07:51:53;9.80;;;4.85;;
79755;SDS011;69239;50.678;12.280;2024-01-30T07:54:18;7.60;;;4.50;;
79755;SDS011;69239;50.678;12.280;2024-01-30T07:56:44;10.27;;;4.72;;
79755;SDS011;69239;50.678;12.280;2024-01-30T07:59:10;12.45;;;5.07;;
79755;SDS011;69239;50.678;12.280;2024-01-30T08:01:36;10.27;;;5.63;;
79755;SDS011;69239;50.678;12.280;2024-01-30T08:04:03;5.97;;;3.47;;
79755;SDS011;69239;50.678;12.280;2024-01-30T08:06:28;8.18;;;4.55;;
79755;SDS011;69239;50.678;12.280;2024-01-30T08:08:54;11.18;;;5.63;;
79755;SDS011;69239;50.678;12.280;2024-01-30T08:11:22;8.73;;;4.65;;
79755;SDS011;69239;50.678;12.280;2024-01-30T08:13:52;10.57;;;4.32;;
79755;SDS011;69239;50.678;12.280;2024-01-30T08:16:18;8.63;;;5.00;;
79755;SDS011;69239;50.678;12.280;2024-01-30T08:18:43;7.82;;;4.43;;
79755;SDS011;69239;50.678;12.280;2024-01-30T08:21:09;8.73;;;4.55;;
79755;SDS011;69239;50.678;12.280;2024-01-30T08:23:35;8.75;;;4.20;;
79755;SDS011;69239;50.678;12.280;2024-01-30T08:26:00;11.02;;;5.03;;
79755;SDS011;69239;50.678;12.280;2024-01-30T08:28:26;8.35;;;5.00;;
79755;SDS011;69239;50.678;12.280;2024-01-30T08:30:52;10.13;;;5.20;;
79755;SDS011;69239;50.678;12.280;2024-01-30T08:33:17;9.68;;;4.55;;
79755;SDS011;69239;50.678;12.280;2024-01-30T08:35:43;7.57;;;4.10;;
79755;SDS011;69239;50.678;12.280;2024-01-30T08:38:08;7.15;;;4.22;;
79755;SDS011;69239;50.678;12.280;2024-01-30T08:40:34;10.02;;;4.68;;
79755;SDS011;69239;50.678;12.280;2024-01-30T08:43:00;7.18;;;4.60;;
79755;SDS011;69239;50.678;12.280;2024-01-30T08:45:25;8.52;;;4.80;;
79755;SDS011;69239;50.678;12.280;2024-01-30T08:47:50;8.90;;;4.78;;
79755;SDS011;69239;50.678;12.280;2024-01-30T08:50:16;8.73;;;4.22;;
79755;SDS011;69239;50.678;12.280;2024-01-30T08:52:41;7.78;;;4.25;;
79755;SDS011;69239;50.678;12.280;2024-01-30T08:55:07;7.75;;;4.68;;
79755;SDS011;69239;50.678;12.280;2024-01-30T08:57:33;7.45;;;4.68;;
79755;SDS011;69239;50.678;12.280;2024-01-30T08:59:58;9.43;;;4.43;;
79755;SDS011;69239;50.678;12.280;2024-01-30T09:02:24;8.48;;;4.70;;
79755;SDS011;69239;50.678;12.280;2024-01-30T09:04:49;9.82;;;4.97;;
79755;SDS011;69239;50.678;12.280;2024-01-30T09:07:15;10.98;;;5.45;;
79755;SDS011;69239;50.678;12.280;2024-01-30T09:09:40;8.63;;;5.05;;
79755;SDS011;69239;50.678;12.280;2024-01-30T09:12:06;10.35;;;5.35;;
79755;SDS011;69239;50.678;12.280;2024-01-30T09:14:34;8.15;;;5.10;;
79755;SDS011;69239;50.678;12.280;2024-01-30T09:17:00;7.78;;;5.25;;
79755;SDS011;69239;50.678;12.280;2024-01-30T09:19:26;7.63;;;4.85;;
79755;SDS011;69239;50.678;12.280;2024-01-30T09:21:51;11.68;;;5.45;;
79755;SDS011;69239;50.678;12.280;2024-01-30T09:24:17;10.70;;;4.90;;
79755;SDS011;69239;50.678;12.280;2024-01-30T09:26:42;8.25;;;4.78;;
79755;SDS011;69239;50.678;12.280;2024-01-30T09:29:08;10.15;;;4.88;;
79755;SDS011;69239;50.678;12.280;2024-01-30T09:31:33;8.85;;;5.10;;
79755;SDS011;69239;50.678;12.280;2024-01-30T09:33:58;9.05;;;5.53;;
79755;SDS011;69239;50.678;12.280;2024-01-30T09:36:24;9.15;;;4.93;;
79755;SDS011;69239;50.678;12.280;2024-01-30T09:38:50;10.18;;;4.78;;
79755;SDS011;69239;50.678;12.280;2024-01-30T09:41:16;8.05;;;4.20;;
79755;SDS011;69239;50.678;12.280;2024-01-30T09:43:47;8.32;;;4.78;;
79755;SDS011;69239;50.678;12.280;2024-01-30T09:46:16;8.48;;;5.22;;
79755;SDS011;69239;50.678;12.280;2024-01-30T09:48:43;8.65;;;4.88;;
79755;SDS011;69239;50.678;12.280;2024-01-30T09:51:11;10.13;;;5.13;;
79755;SDS011;69239;50.678;12.280;2024-01-30T09:53:38;9.23;;;4.88;;
79755;SDS011;69239;50.678;12.280;2024-01-30T09:56:04;8.90;;;4.68;;
79755;SDS011;69239;50.678;12.280;2024-01-30T09:58:30;8.43;;;4.68;;
79755;SDS011;69239;50.678;12.280;2024-01-30T10:00:56;8.50;;;4.85;;
79755;SDS011;69239;50.678;12.280;2024-01-30T10:05:52;9.05;;;4.35;;
79755;SDS011;69239;50.678;12.280;2024-01-30T10:08:18;8.15;;;4.70;;
79755;SDS011;69239;50.678;12.280;2024-01-30T10:10:46;11.30;;;5.32;;
79755;SDS011;69239;50.678;12.280;2024-01-30T10:13:12;8.27;;;4.70;;
79755;SDS011;69239;50.678;12.280;2024-01-30T10:15:40;9.25;;;5.25;;
79755;SDS011;69239;50.678;12.280;2024-01-30T10:18:06;9.32;;;5.05;;
79755;SDS011;69239;50.678;12.280;2024-01-30T10:20:33;10.23;;;5.38;;
79755;SDS011;69239;50.678;12.280;2024-01-30T10:22:59;9.32;;;4.82;;
79755;SDS011;69239;50.678;12.280;2024-01-30T10:25:27;12.07;;;5.18;;
79755;SDS011;69239;50.678;12.280;2024-01-30T10:27:53;9.40;;;5.15;;
79755;SDS011;69239;50.678;12.280;2024-01-30T10:30:22;9.10;;;5.32;;
79755;SDS011;69239;50.678;12.280;2024-01-30T10:32:48;9.20;;;4.93;;
79755;SDS011;69239;50.678;12.280;2024-01-30T10:35:14;8.85;;;4.97;;
79755;SDS011;69239;50.678;12.280;2024-01-30T10:37:39;6.82;;;4.22;;
79755;SDS011;69239;50.678;12.280;2024-01-30T10:40:05;9.27;;;5.10;;
79755;SDS011;69239;50.678;12.280;2024-01-30T10:42:33;6.68;;;4.72;;
79755;SDS011;69239;50.678;12.280;2024-01-30T10:47:37;9.00;;;4.93;;
79755;SDS011;69239;50.678;12.280;2024-01-30T10:50:05;8.32;;;4.93;;
79755;SDS011;69239;50.678;12.280;2024-01-30T10:52:33;9.25;;;5.13;;
79755;SDS011;69239;50.678;12.280;2024-01-30T10:54:58;8.77;;;4.95;;
79755;SDS011;69239;50.678;12.280;2024-01-30T10:57:24;7.55;;;4.45;;
79755;SDS011;69239;50.678;12.280;2024-01-30T10:59:57;7.90;;;4.50;;
79755;SDS011;69239;50.678;12.280;2024-01-30T11:02:24;9.20;;;4.78;;
79755;SDS011;69239;50.678;12.280;2024-01-30T11:04:55;8.18;;;4.35;;
79755;SDS011;69239;50.678;12.280;2024-01-30T11:07:26;7.57;;;4.40;;
79755;SDS011;69239;50.678;12.280;2024-01-30T11:09:59;10.27;;;5.13;;
79755;SDS011;69239;50.678;12.280;2024-01-30T11:12:27;8.93;;;4.63;;
79755;SDS011;69239;50.678;12.280;2024-01-30T11:15:01;10.13;;;4.80;;
79755;SDS011;69239;50.678;12.280;2024-01-30T11:17:28;7.30;;;4.32;;
79755;SDS011;69239;50.678;12.280;2024-01-30T11:19:53;7.50;;;4.22;;
79755;SDS011;69239;50.678;12.280;2024-01-30T11:22:22;8.10;;;4.88;;
79755;SDS011;69239;50.678;12.280;2024-01-30T11:24:47;8.70;;;4.65;;
79755;SDS011;69239;50.678;12.280;2024-01-30T11:27:12;9.80;;;5.77;;
79755;SDS011;69239;50.678;12.280;2024-01-30T11:29:40;12.02;;;5.65;;
79755;SDS011;69239;50.678;12.280;2024-01-30T11:32:05;7.35;;;4.80;;
79755;SDS011;69239;50.678;12.280;2024-01-30T11:34:32;8.40;;;4.63;;
79755;SDS011;69239;50.678;12.280;2024-01-30T11:36:59;9.02;;;4.90;;
79755;SDS011;69239;50.678;12.280;2024-01-30T11:39:30;9.85;;;5.32;;
79755;SDS011;69239;50.678;12.280;2024-01-30T11:41:56;9.30;;;4.97;;
79755;SDS011;69239;50.678;12.280;2024-01-30T11:44:22;10.45;;;5.22;;
79755;SDS011;69239;50.678;12.280;2024-01-30T11:46:48;8.80;;;4.72;;
79755;SDS011;69239;50.678;12.280;2024-01-30T11:49:14;7.53;;;5.10;;
79755;SDS011;69239;50.678;12.280;2024-01-30T11:51:39;9.20;;;4.43;;
79755;SDS011;69239;50.678;12.280;2024-01-30T11:54:05;8.05;;;4.82;;
79755;SDS011;69239;50.678;12.280;2024-01-30T11:56:30;9.63;;;4.93;;
79755;SDS011;69239;50.678;12.280;2024-01-30T11:58:56;7.78;;;4.95;;
79755;SDS011;69239;50.678;12.280;2024-01-30T12:01:21;8.35;;;5.00;;
79755;SDS011;69239;50.678;12.280;2024-01-30T12:03:50;9.30;;;5.07;;
79755;SDS011;69239;50.678;12.280;2024-01-30T12:06:16;11.20;;;5.38;;
79755;SDS011;69239;50.678;12.280;2024-01-30T12:08:41;9.70;;;4.32;;
79755;SDS011;69239;50.678;12.280;2024-01-30T12:11:07;8.93;;;5.13;;
79755;SDS011;69239;50.678;12.280;2024-01-30T12:13:32;8.80;;;4.75;;
79755;SDS011;69239;50.678;12.280;2024-01-30T12:15:58;8.80;;;4.95;;
79755;SDS011;69239;50.678;12.280;2024-01-30T12:18:24;9.48;;;5.10;;
79755;SDS011;69239;50.678;12.280;2024-01-30T12:20:57;9.35;;;5.20;;
79755;SDS011;69239;50.678;12.280;2024-01-30T12:23:26;7.30;;;4.18;;
79755;SDS011;69239;50.678;12.280;2024-01-30T12:25:52;8.57;;;4.78;;
79755;SDS011;69239;50.678;12.280;2024-01-30T12:28:18;8.30;;;6.10;;
79755;SDS011;69239;50.678;12.280;2024-01-30T12:30:44;9.10;;;5.10;;
79755;SDS011;69239;50.678;12.280;2024-01-30T12:33:09;8.48;;;4.68;;
79755;SDS011;69239;50.678;12.280;2024-01-30T12:35:45;9.15;;;5.65;;
79755;SDS011;69239;50.678;12.280;2024-01-30T12:38:11;7.93;;;5.05;;
79755;SDS011;69239;50.678;12.280;2024-01-30T12:40:36;8.80;;;5.55;;
79755;SDS011;69239;50.678;12.280;2024-01-30T12:43:02;10.05;;;5.40;;
79755;SDS011;69239;50.678;12.280;2024-01-30T12:45:28;10.82;;;4.90;;
79755;SDS011;69239;50.678;12.280;2024-01-30T12:47:53;8.15;;;5.13;;
79755;SDS011;69239;50.678;12.280;2024-01-30T12:50:19;12.10;;;5.75;;
79755;SDS011;69239;50.678;12.280;2024-01-30T12:52:44;9.20;;;4.95;;
79755;SDS011;69239;50.678;12.280;2024-01-30T12:55:10;11.60;;;5.45;;
79755;SDS011;69239;50.678;12.280;2024-01-30T12:57:35;10.93;;;5.00;;
79755;SDS011;69239;50.678;12.280;2024-01-30T13:00:01;12.10;;;5.70;;
79755;SDS011;69239;50.678;12.280;2024-01-30T13:02:26;9.70;;;5.25;;
79755;SDS011;69239;50.678;12.280;2024-01-30T13:04:59;9.30;;;4.90;;
79755;SDS011;69239;50.678;12.280;2024-01-30T13:07:25;8.90;;;4.82;;
79755;SDS011;69239;50.678;12.280;2024-01-30T13:09:50;7.15;;;4.05;;
79755;SDS011;69239;50.678;12.280;2024-01-30T13:12:16;9.40;;;5.18;;
79755;SDS011;69239;50.678;12.280;2024-01-30T13:14:42;8.43;;;5.40;;
79755;SDS011;69239;50.678;12.280;2024-01-30T13:17:08;6.80;;;5.53;;
79755;SDS011;69239;50.678;12.280;2024-01-30T13:19:33;10.35;;;5.72;;
79755;SDS011;69239;50.678;12.280;2024-01-30T13:21:59;9.18;;;5.15;;
79755;SDS011;69239;50.678;12.280;2024-01-30T13:24:24;10.55;;;4.82;;
79755;SDS011;69239;50.678;12.280;2024-01-30T13:26:50;9.38;;;6.03;;
79755;SDS011;69239;50.678;12.280;2024-01-30T13:29:15;10.38;;;5.80;;
79755;SDS011;69239;50.678;12.280;2024-01-30T13:31:41;7.90;;;4.93;;
79755;SDS011;69239;50.678;12.280;2024-01-30T13:34:06;10.10;;;5.95;;
79755;SDS011;69239;50.678;12.280;2024-01-30T13:36:32;10.63;;;6.00;;
79755;SDS011;69239;50.678;12.280;2024-01-30T13:38:57;10.52;;;4.80;;
79755;SDS011;69239;50.678;12.280;2024-01-30T13:41:23;11.45;;;5.30;;
79755;SDS011;69239;50.678;12.280;2024-01-30T13:43:49;8.15;;;4.75;;
79755;SDS011;69239;50.678;12.280;2024-01-30T13:46:14;9.20;;;5.70;;
79755;SDS011;69239;50.678;12.280;2024-01-30T13:48:40;8.68;;;5.93;;
79755;SDS011;69239;50.678;12.280;2024-01-30T13:51:05;9.98;;;5.82;;
79755;SDS011;69239;50.678;12.280;2024-01-30T13:53:32;10.07;;;5.40;;
79755;SDS011;69239;50.678;12.280;2024-01-30T13:55:57;8.70;;;4.75;;
79755;SDS011;69239;50.678;12.280;2024-01-30T13:58:23;14.50;;;5.60;;
79755;SDS011;69239;50.678;12.280;2024-01-30T14:00:48;10.85;;;5.18;;
79755;SDS011;69239;50.678;12.280;2024-01-30T14:03:14;10.35;;;5.18;;
79755;SDS011;69239;50.678;12.280;2024-01-30T14:05:39;10.45;;;5.35;;
79755;SDS011;69239;50.678;12.280;2024-01-30T14:08:05;8.38;;;5.28;;
79755;SDS011;69239;50.678;12.280;2024-01-30T14:10:32;9.57;;;5.03;;
79755;SDS011;69239;50.678;12.280;2024-01-30T14:12:57;8.23;;;4.88;;
79755;SDS011;69239;50.678;12.280;2024-01-30T14:15:23;7.47;;;4.95;;
79755;SDS011;69239;50.678;12.280;2024-01-30T14:17:48;8.10;;;5.43;;
79755;SDS011;69239;50.678;12.280;2024-01-30T14:20:15;9.43;;;5.15;;
79755;SDS011;69239;50.678;12.280;2024-01-30T14:22:43;9.52;;;5.10;;
79755;SDS011;69239;50.678;12.280;2024-01-30T14:25:09;12.05;;;5.93;;
79755;SDS011;69239;50.678;12.280;2024-01-30T14:27:35;11.18;;;5.75;;
79755;SDS011;69239;50.678;12.280;2024-01-30T14:30:01;10.90;;;6.03;;